sensor_id;sensor_type;location;lat;lon;timestamp;pressure;altitude;pressure_sealevel;temperature;humidity
1726;BME280;41776;48.260;8.928;2024-02-21T00:01:29;52386.97;;;-145.69;67.14
1726;BME280;41776;48.260;8.928;2024-02-21T00:03:56;52377.06;;;-145.69;67.46
1726;BME280;41776;48.260;8.928;2024-02-21T00:06:22;52367.16;;;-145.69;67.12
1726;BME280;41776;48.260;8.928;2024-02-21T00:08:50;52388.94;;;-145.69;66.93
1726;BME280;41776;48.260;8.928;2024-02-21T00:11:17;52383.00;;;-145.69;67.28
1726;BME280;41776;48.260;8.928;2024-02-21T00:13:43;52392.91;;;-145.69;67.53
1726;BME280;41776;48.260;8.928;2024-02-21T00:16:10;52373.09;;;-145.69;67.30
1726;BME280;41776;48.260;8.928;2024-02-21T00:18:37;52412.69;;;-145.69;67.48
1726;BME280;41776;48.260;8.928;2024-02-21T00:21:03;52398.84;;;-145.69;67.39
1726;BME280;41776;48.260;8.928;2024-02-21T00:23:30;52406.75;;;-145.69;67.25
1726;BME280;41776;48.260;8.928;2024-02-21T00:25:58;52359.22;;;-145.69;67.47
1726;BME280;41776;48.260;8.928;2024-02-21T00:28:24;52349.31;;;-145.69;67.14
1726;BME280;41776;48.260;8.928;2024-02-21T00:30:51;52351.31;;;-145.69;66.46
1726;BME280;41776;48.260;8.928;2024-02-21T00:33:18;52384.97;;;-145.69;66.33
1726;BME280;41776;48.260;8.928;2024-02-21T00:35:45;52373.09;;;-145.69;65.90
1726;BME280;41776;48.260;8.928;2024-02-21T00:38:12;52349.31;;;-145.69;65.63
1726;BME280;41776;48.260;8.928;2024-02-21T00:40:38;52371.13;;;-145.69;65.46
1726;BME280;41776;48.260;8.928;2024-02-21T00:43:06;52361.22;;;-145.69;65.93
1726;BME280;41776;48.260;8.928;2024-02-21T00:45:33;52349.31;;;-145.69;65.41
1726;BME280;41776;48.260;8.928;2024-02-21T00:47:59;52392.91;;;-145.69;65.73
1726;BME280;41776;48.260;8.928;2024-02-21T00:50:25;52373.09;;;-145.69;65.85
1726;BME280;41776;48.260;8.928;2024-02-21T00:52:52;52365.16;;;-145.69;66.11
1726;BME280;41776;48.260;8.928;2024-02-21T00:55:18;52379.03;;;-145.69;66.00
1726;BME280;41776;48.260;8.928;2024-02-21T00:57:45;52349.31;;;-145.69;65.98
1726;BME280;41776;48.260;8.928;2024-02-21T01:00:13;52388.94;;;-145.69;65.87
1726;BME280;41776;48.260;8.928;2024-02-21T01:02:40;52404.78;;;-145.69;66.03
1726;BME280;41776;48.260;8.928;2024-02-21T01:05:07;52365.16;;;-145.69;65.83
1726;BME280;41776;48.260;8.928;2024-02-21T01:07:33;52375.06;;;-145.69;66.17
1726;BME280;41776;48.260;8.928;2024-02-21T01:10:00;52388.94;;;-145.69;65.90
1726;BME280;41776;48.260;8.928;2024-02-21T01:12:26;52337.44;;;-145.69;65.36
1726;BME280;41776;48.260;8.928;2024-02-21T01:14:53;52384.97;;;-145.69;65.31
1726;BME280;41776;48.260;8.928;2024-02-21T01:17:21;52361.22;;;-145.69;65.53
1726;BME280;41776;48.260;8.928;2024-02-21T01:19:47;52355.28;;;-145.69;65.29
1726;BME280;41776;48.260;8.928;2024-02-21T01:22:13;52361.22;;;-145.69;64.84
1726;BME280;41776;48.260;8.928;2024-02-21T01:24:41;52353.28;;;-145.69;65.03
1726;BME280;41776;48.260;8.928;2024-02-21T01:27:07;52361.22;;;-145.69;66.36
1726;BME280;41776;48.260;8.928;2024-02-21T01:29:34;52359.22;;;-145.69;66.20
1726;BME280;41776;48.260;8.928;2024-02-21T01:32:00;52384.97;;;-145.69;65.96
1726;BME280;41776;48.260;8.928;2024-02-21T01:34:28;52353.28;;;-145.69;66.44
1726;BME280;41776;48.260;8.928;2024-02-21T01:36:54;52388.94;;;-145.69;66.75
1726;BME280;41776;48.260;8.928;2024-02-21T01:39:21;52359.22;;;-145.69;66.23
1726;BME280;41776;48.260;8.928;2024-02-21T01:41:47;52400.81;;;-145.69;66.38
1726;BME280;41776;48.260;8.928;2024-02-21T01:44:13;52367.16;;;-145.69;66.32
1726;BME280;41776;48.260;8.928;2024-02-21T01:46:40;52367.16;;;-145.69;66.07
1726;BME280;41776;48.260;8.928;2024-02-21T01:49:06;52345.38;;;-145.69;65.87
1726;BME280;41776;48.260;8.928;2024-02-21T01:51:35;52379.03;;;-145.69;66.01
1726;BME280;41776;48.260;8.928;2024-02-21T01:54:01;52400.81;;;-145.69;65.78
1726;BME280;41776;48.260;8.928;2024-02-21T01:56:28;52375.06;;;-145.69;65.78
1726;BME280;41776;48.260;8.928;2024-02-21T01:58:55;52363.19;;;-145.69;66.06
1726;BME280;41776;48.260;8.928;2024-02-21T02:01:21;52371.13;;;-145.69;65.56
1726;BME280;41776;48.260;8.928;2024-02-21T02:03:48;52381.00;;;-145.69;65.38
1726;BME280;41776;48.260;8.928;2024-02-21T02:06:15;52353.28;;;-145.69;64.96
1726;BME280;41776;48.260;8.928;2024-02-21T02:08:43;52375.06;;;-145.69;65.09
1726;BME280;41776;48.260;8.928;2024-02-21T02:11:09;52369.13;;;-145.69;64.82
1726;BME280;41776;48.260;8.928;2024-02-21T02:13:36;52361.22;;;-145.69;65.12
1726;BME280;41776;48.260;8.928;2024-02-21T02:16:04;52337.44;;;-145.69;65.09
1726;BME280;41776;48.260;8.928;2024-02-21T02:18:30;52359.22;;;-145.69;65.47
1726;BME280;41776;48.260;8.928;2024-02-21T02:20:57;52349.31;;;-145.69;65.09
1726;BME280;41776;48.260;8.928;2024-02-21T02:23:25;52375.06;;;-145.69;66.18
1726;BME280;41776;48.260;8.928;2024-02-21T02:25:52;52363.19;;;-145.69;65.99
1726;BME280;41776;48.260;8.928;2024-02-21T02:28:19;52369.13;;;-145.69;65.80
1726;BME280;41776;48.260;8.928;2024-02-21T02:30:46;52365.16;;;-145.69;66.28
1726;BME280;41776;48.260;8.928;2024-02-21T02:33:12;52392.91;;;-145.69;66.11
1726;BME280;41776;48.260;8.928;2024-02-21T02:35:39;52369.13;;;-145.69;65.62
1726;BME280;41776;48.260;8.928;2024-02-21T02:38:05;52381.00;;;-145.69;66.16
1726;BME280;41776;48.260;8.928;2024-02-21T02:40:34;52381.00;;;-145.69;66.14
1726;BME280;41776;48.260;8.928;2024-02-21T02:43:01;52349.31;;;-145.69;66.18
1726;BME280;41776;48.260;8.928;2024-02-21T02:45:28;52388.94;;;-145.69;65.91
1726;BME280;41776;48.260;8.928;2024-02-21T02:47:55;52361.22;;;-145.69;66.03
1726;BME280;41776;48.260;8.928;2024-02-21T02:50:22;52357.25;;;-145.69;65.81
1726;BME280;41776;48.260;8.928;2024-02-21T02:52:49;52365.16;;;-145.69;65.49
1726;BME280;41776;48.260;8.928;2024-02-21T02:55:15;52357.25;;;-145.69;65.78
1726;BME280;41776;48.260;8.928;2024-02-21T02:57:43;52392.91;;;-145.69;65.55
1726;BME280;41776;48.260;8.928;2024-02-21T03:00:11;52361.22;;;-145.69;65.36
1726;BME280;41776;48.260;8.928;2024-02-21T03:02:39;52384.97;;;-145.69;65.43
1726;BME280;41776;48.260;8.928;2024-02-21T03:05:12;52375.06;;;-145.69;64.77
1726;BME280;41776;48.260;8.928;2024-02-21T03:07:39;52383.00;;;-145.69;65.29
1726;BME280;41776;48.260;8.928;2024-02-21T03:10:06;52365.16;;;-145.69;65.30
1726;BME280;41776;48.260;8.928;2024-02-21T03:12:33;52341.41;;;-145.69;65.38
1726;BME280;41776;48.260;8.928;2024-02-21T03:15:01;52394.88;;;-145.69;64.96
1726;BME280;41776;48.260;8.928;2024-02-21T03:17:27;52371.13;;;-145.69;65.21
1726;BME280;41776;48.260;8.928;2024-02-21T03:19:54;52347.34;;;-145.69;64.59
1726;BME280;41776;48.260;8.928;2024-02-21T03:22:20;52365.16;;;-145.69;64.94
1726;BME280;41776;48.260;8.928;2024-02-21T03:24:47;52357.25;;;-145.69;64.57
1726;BME280;41776;48.260;8.928;2024-02-21T03:27:14;52398.84;;;-145.69;64.48
1726;BME280;41776;48.260;8.928;2024-02-21T03:29:40;52359.22;;;-145.69;64.08
1726;BME280;41776;48.260;8.928;2024-02-21T03:32:08;52388.94;;;-145.69;63.64
1726;BME280;41776;48.260;8.928;2024-02-21T03:34:34;52345.38;;;-145.69;63.84
1726;BME280;41776;48.260;8.928;2024-02-21T03:37:01;52351.31;;;-145.69;63.29
1726;BME280;41776;48.260;8.928;2024-02-21T03:39:30;52371.13;;;-145.69;62.51
1726;BME280;41776;48.260;8.928;2024-02-21T03:41:57;52365.16;;;-145.69;62.45
1726;BME280;41776;48.260;8.928;2024-02-21T03:44:25;52359.22;;;-145.69;62.44
1726;BME280;41776;48.260;8.928;2024-02-21T03:46:52;52367.16;;;-145.69;62.55
1726;BME280;41776;48.260;8.928;2024-02-21T03:49:20;52373.09;;;-145.69;62.99
1726;BME280;41776;48.260;8.928;2024-02-21T03:51:46;52337.44;;;-145.69;63.14
1726;BME280;41776;48.260;8.928;2024-02-21T03:54:12;52353.28;;;-145.69;62.87
1726;BME280;41776;48.260;8.928;2024-02-21T03:56:39;52379.03;;;-145.69;62.59
1726;BME280;41776;48.260;8.928;2024-02-21T03:59:06;52392.91;;;-145.69;62.74
1726;BME280;41776;48.260;8.928;2024-02-21T04:01:33;52375.06;;;-145.69;62.21
1726;BME280;41776;48.260;8.928;2024-02-21T04:03:59;52371.13;;;-145.69;62.52
1726;BME280;41776;48.260;8.928;2024-02-21T04:06:27;52357.25;;;-145.69;61.99
1726;BME280;41776;48.260;8.928;2024-02-21T04:08:54;52361.22;;;-145.69;61.88
1726;BME280;41776;48.260;8.928;2024-02-21T04:11:20;52337.44;;;-145.69;62.09
1726;BME280;41776;48.260;8.928;2024-02-21T04:13:47;52361.22;;;-145.69;62.51
1726;BME280;41776;48.260;8.928;2024-02-21T04:16:15;52361.22;;;-145.69;62.69
1726;BME280;41776;48.260;8.928;2024-02-21T04:18:42;52369.13;;;-145.69;62.77
1726;BME280;41776;48.260;8.928;2024-02-21T04:21:09;52371.13;;;-145.69;63.03
1726;BME280;41776;48.260;8.928;2024-02-21T04:23:37;52377.06;;;-145.69;63.86
1726;BME280;41776;48.260;8.928;2024-02-21T04:26:03;52325.56;;;-145.69;63.26
1726;BME280;41776;48.260;8.928;2024-02-21T04:28:30;52341.41;;;-145.69;63.76
1726;BME280;41776;48.260;8.928;2024-02-21T04:30:56;52379.03;;;-145.69;63.86
1726;BME280;41776;48.260;8.928;2024-02-21T04:33:22;52400.81;;;-145.69;64.31
1726;BME280;41776;48.260;8.928;2024-02-21T04:35:49;52363.19;;;-145.69;64.39
1726;BME280;41776;48.260;8.928;2024-02-21T04:38:15;52386.97;;;-145.69;63.64
1726;BME280;41776;48.260;8.928;2024-02-21T04:40:43;52349.31;;;-145.69;64.19
1726;BME280;41776;48.260;8.928;2024-02-21T04:43:09;52398.84;;;-145.69;64.30
1726;BME280;41776;48.260;8.928;2024-02-21T04:45:36;52377.06;;;-145.69;64.48
1726;BME280;41776;48.260;8.928;2024-02-21T04:48:03;52369.13;;;-145.69;65.48
1726;BME280;41776;48.260;8.928;2024-02-21T04:50:29;52381.00;;;-145.69;64.68
1726;BME280;41776;48.260;8.928;2024-02-21T04:52:56;52379.03;;;-145.69;65.04
1726;BME280;41776;48.260;8.928;2024-02-21T04:55:22;52369.13;;;-145.69;65.51
1726;BME280;41776;48.260;8.928;2024-02-21T04:57:50;52381.00;;;-145.69;65.54
1726;BME280;41776;48.260;8.928;2024-02-21T05:00:17;52369.13;;;-145.69;65.17
1726;BME280;41776;48.260;8.928;2024-02-21T05:02:44;52353.28;;;-145.69;65.16
1726;BME280;41776;48.260;8.928;2024-02-21T05:05:10;52367.16;;;-145.69;65.81
1726;BME280;41776;48.260;8.928;2024-02-21T05:07:36;52369.13;;;-145.69;65.65
1726;BME280;41776;48.260;8.928;2024-02-21T05:10:03;52414.69;;;-145.69;65.24
1726;BME280;41776;48.260;8.928;2024-02-21T05:12:30;52394.88;;;-145.69;65.48
1726;BME280;41776;48.260;8.928;2024-02-21T05:14:58;52357.25;;;-145.69;65.30
1726;BME280;41776;48.260;8.928;2024-02-21T05:17:24;52369.13;;;-145.69;65.34
1726;BME280;41776;48.260;8.928;2024-02-21T05:19:51;52381.00;;;-145.69;65.88
1726;BME280;41776;48.260;8.928;2024-02-21T05:22:17;52377.06;;;-145.69;65.26
1726;BME280;41776;48.260;8.928;2024-02-21T05:24:43;52388.94;;;-145.69;65.21
1726;BME280;41776;48.260;8.928;2024-02-21T05:27:10;52400.81;;;-145.69;65.18
1726;BME280;41776;48.260;8.928;2024-02-21T05:29:36;52373.09;;;-145.69;64.74
1726;BME280;41776;48.260;8.928;2024-02-21T05:32:05;52375.06;;;-145.69;65.16
1726;BME280;41776;48.260;8.928;2024-02-21T05:34:31;52373.09;;;-145.69;65.61
1726;BME280;41776;48.260;8.928;2024-02-21T05:36:58;52402.78;;;-145.69;65.15
1726;BME280;41776;48.260;8.928;2024-02-21T05:39:25;52420.63;;;-145.69;65.13
1726;BME280;41776;48.260;8.928;2024-02-21T05:41:54;52335.47;;;-145.69;64.72
1726;BME280;41776;48.260;8.928;2024-02-21T05:44:20;52377.06;;;-145.69;65.33
1726;BME280;41776;48.260;8.928;2024-02-21T05:46:47;52396.84;;;-145.69;64.95
1726;BME280;41776;48.260;8.928;2024-02-21T05:49:15;52388.94;;;-145.69;64.91
1726;BME280;41776;48.260;8.928;2024-02-21T05:51:42;52388.94;;;-145.69;64.54
1726;BME280;41776;48.260;8.928;2024-02-21T05:54:08;52361.22;;;-145.69;64.57
1726;BME280;41776;48.260;8.928;2024-02-21T05:56:34;52377.06;;;-145.69;65.06
1726;BME280;41776;48.260;8.928;2024-02-21T05:59:01;52369.13;;;-145.69;64.75
1726;BME280;41776;48.260;8.928;2024-02-21T06:01:27;52341.41;;;-145.69;64.81
1726;BME280;41776;48.260;8.928;2024-02-21T06:03:54;52357.25;;;-145.69;64.19
1726;BME280;41776;48.260;8.928;2024-02-21T06:06:22;52343.38;;;-145.69;64.44
1726;BME280;41776;48.260;8.928;2024-02-21T06:08:48;52386.97;;;-145.69;64.21
1726;BME280;41776;48.260;8.928;2024-02-21T06:11:14;52355.28;;;-145.69;64.48
1726;BME280;41776;48.260;8.928;2024-02-21T06:13:41;52345.38;;;-145.69;64.79
1726;BME280;41776;48.260;8.928;2024-02-21T06:16:07;52388.94;;;-145.69;65.14
1726;BME280;41776;48.260;8.928;2024-02-21T06:18:35;52351.31;;;-145.69;65.52
1726;BME280;41776;48.260;8.928;2024-02-21T06:21:02;52396.84;;;-145.69;65.04
1726;BME280;41776;48.260;8.928;2024-02-21T06:23:29;52375.06;;;-145.69;65.63
1726;BME280;41776;48.260;8.928;2024-02-21T06:25:56;52386.97;;;-145.69;65.31
1726;BME280;41776;48.260;8.928;2024-02-21T06:28:22;52349.31;;;-145.69;65.28
1726;BME280;41776;48.260;8.928;2024-02-21T06:30:49;52369.13;;;-145.69;64.97
1726;BME280;41776;48.260;8.928;2024-02-21T06:33:15;52349.31;;;-145.69;64.87
1726;BME280;41776;48.260;8.928;2024-02-21T06:35:42;52349.31;;;-145.69;66.03
1726;BME280;41776;48.260;8.928;2024-02-21T06:38:11;52341.41;;;-145.69;65.87
1726;BME280;41776;48.260;8.928;2024-02-21T06:40:39;52384.97;;;-145.69;65.91
1726;BME280;41776;48.260;8.928;2024-02-21T06:43:05;52388.94;;;-145.69;65.90
1726;BME280;41776;48.260;8.928;2024-02-21T06:45:32;52412.69;;;-145.69;66.16
1726;BME280;41776;48.260;8.928;2024-02-21T06:47:58;52357.25;;;-145.69;66.18
1726;BME280;41776;48.260;8.928;2024-02-21T06:50:25;52408.75;;;-145.69;66.41
1726;BME280;41776;48.260;8.928;2024-02-21T06:52:51;52373.09;;;-145.69;66.00
1726;BME280;41776;48.260;8.928;2024-02-21T06:55:18;52357.25;;;-145.69;66.28
1726;BME280;41776;48.260;8.928;2024-02-21T06:57:46;52347.34;;;-145.69;66.25
1726;BME280;41776;48.260;8.928;2024-02-21T07:00:14;52377.06;;;-145.69;65.46
1726;BME280;41776;48.260;8.928;2024-02-21T07:02:41;52359.22;;;-145.69;66.04
1726;BME280;41776;48.260;8.928;2024-02-21T07:05:08;52386.97;;;-145.69;66.16
1726;BME280;41776;48.260;8.928;2024-02-21T07:07:34;52400.81;;;-145.69;65.98
1726;BME280;41776;48.260;8.928;2024-02-21T07:10:01;52341.41;;;-145.69;65.68
1726;BME280;41776;48.260;8.928;2024-02-21T07:12:27;52369.13;;;-145.69;65.51
1726;BME280;41776;48.260;8.928;2024-02-21T07:14:55;52357.25;;;-145.69;65.18
1726;BME280;41776;48.260;8.928;2024-02-21T07:17:21;52373.09;;;-145.69;65.12
1726;BME280;41776;48.260;8.928;2024-02-21T07:19:48;52377.06;;;-145.69;65.41
1726;BME280;41776;48.260;8.928;2024-02-21T07:22:14;52384.97;;;-145.69;65.38
1726;BME280;41776;48.260;8.928;2024-02-21T07:24:41;52386.97;;;-145.69;65.50
1726;BME280;41776;48.260;8.928;2024-02-21T07:27:07;52343.38;;;-145.69;64.89
1726;BME280;41776;48.260;8.928;2024-02-21T07:29:34;52396.84;;;-145.69;64.44
1726;BME280;41776;48.260;8.928;2024-02-21T07:32:02;52355.28;;;-145.69;64.94
1726;BME280;41776;48.260;8.928;2024-02-21T07:34:29;52317.66;;;-145.69;63.74
1726;BME280;41776;48.260;8.928;2024-02-21T07:36:55;52365.16;;;-145.69;63.69
1726;BME280;41776;48.260;8.928;2024-02-21T07:39:22;52357.25;;;-145.69;63.29
1726;BME280;41776;48.260;8.928;2024-02-21T07:41:48;52339.44;;;-145.69;62.25
1726;BME280;41776;48.260;8.928;2024-02-21T07:44:15;52369.13;;;-145.69;62.70
1726;BME280;41776;48.260;8.928;2024-02-21T07:46:41;52343.38;;;-145.69;62.44
1726;BME280;41776;48.260;8.928;2024-02-21T07:49:09;52345.38;;;-145.69;61.89
1726;BME280;41776;48.260;8.928;2024-02-21T07:51:36;52345.38;;;-145.69;62.09
1726;BME280;41776;48.260;8.928;2024-02-21T07:54:02;52373.09;;;-145.69;60.94
1726;BME280;41776;48.260;8.928;2024-02-21T07:56:29;52335.47;;;-145.69;60.94
1726;BME280;41776;48.260;8.928;2024-02-21T07:58:56;52345.38;;;-145.69;59.67
1726;BME280;41776;48.260;8.928;2024-02-21T08:01:22;52367.16;;;-145.69;56.00
1726;BME280;41776;48.260;8.928;2024-02-21T08:03:49;52349.31;;;-145.69;59.51
1726;BME280;41776;48.260;8.928;2024-02-21T08:06:17;52355.28;;;-145.69;57.98
1726;BME280;41776;48.260;8.928;2024-02-21T08:08:43;52335.47;;;-145.69;57.77
1726;BME280;41776;48.260;8.928;2024-02-21T08:11:09;52373.09;;;-145.69;58.49
1726;BME280;41776;48.260;8.928;2024-02-21T08:13:36;52329.53;;;-145.69;58.13
1726;BME280;41776;48.260;8.928;2024-02-21T08:16:03;52309.72;;;-145.69;57.60
1726;BME280;41776;48.260;8.928;2024-02-21T08:18:29;52339.44;;;-145.69;55.13
1726;BME280;41776;48.260;8.928;2024-02-21T08:20:55;52317.66;;;-145.69;55.52
1726;BME280;41776;48.260;8.928;2024-02-21T08:23:24;52329.53;;;-145.69;56.08
1726;BME280;41776;48.260;8.928;2024-02-21T08:25:50;52321.59;;;-145.69;55.82
1726;BME280;41776;48.260;8.928;2024-02-21T08:28:17;52299.81;;;-145.69;54.98
1726;BME280;41776;48.260;8.928;2024-02-21T08:30:43;52301.81;;;-145.69;54.95
1726;BME280;41776;48.260;8.928;2024-02-21T08:33:13;52309.72;;;-145.69;54.94
1726;BME280;41776;48.260;8.928;2024-02-21T08:35:39;52274.06;;;-145.69;54.59
1726;BME280;41776;48.260;8.928;2024-02-21T08:38:06;52303.78;;;-145.69;53.51
1726;BME280;41776;48.260;8.928;2024-02-21T08:40:33;52319.63;;;-145.69;53.07
1726;BME280;41776;48.260;8.928;2024-02-21T08:43:00;52317.66;;;-145.69;52.72
1726;BME280;41776;48.260;8.928;2024-02-21T08:45:27;52299.81;;;-145.69;51.60
1726;BME280;41776;48.260;8.928;2024-02-21T08:47:53;52295.84;;;-145.69;51.16
1726;BME280;41776;48.260;8.928;2024-02-21T08:50:19;52293.88;;;-145.69;50.99
1726;BME280;41776;48.260;8.928;2024-02-21T08:52:46;52266.16;;;-145.69;51.01
1726;BME280;41776;48.260;8.928;2024-02-21T08:55:12;52278.03;;;-145.69;50.35
1726;BME280;41776;48.260;8.928;2024-02-21T08:57:40;52289.91;;;-145.69;48.39
1726;BME280;41776;48.260;8.928;2024-02-21T09:00:08;52280.00;;;-145.69;47.99
1726;BME280;41776;48.260;8.928;2024-02-21T09:02:36;52262.19;;;-145.69;46.93
1726;BME280;41776;48.260;8.928;2024-02-21T09:05:04;52278.03;;;-145.69;43.54
1726;BME280;41776;48.260;8.928;2024-02-21T09:07:31;52272.09;;;-145.69;44.61
1726;BME280;41776;48.260;8.928;2024-02-21T09:09:58;52285.97;;;-145.69;44.58
1726;BME280;41776;48.260;8.928;2024-02-21T09:12:24;52260.22;;;-145.69;44.40
1726;BME280;41776;48.260;8.928;2024-02-21T09:14:52;52266.16;;;-145.69;44.19
1726;BME280;41776;48.260;8.928;2024-02-21T09:17:18;52266.16;;;-145.69;43.25
1726;BME280;41776;48.260;8.928;2024-02-21T09:19:46;52254.28;;;-145.69;43.89
1726;BME280;41776;48.260;8.928;2024-02-21T09:22:13;52278.03;;;-145.69;42.14
1726;BME280;41776;48.260;8.928;2024-02-21T09:24:39;52264.16;;;-145.69;42.14
1726;BME280;41776;48.260;8.928;2024-02-21T09:27:05;52230.50;;;-145.69;41.95
1726;BME280;41776;48.260;8.928;2024-02-21T09:29:32;52262.19;;;-145.69;40.96
1726;BME280;41776;48.260;8.928;2024-02-21T09:32:00;52242.38;;;-145.69;41.17
1726;BME280;41776;48.260;8.928;2024-02-21T09:34:28;52252.28;;;-145.69;40.80
1726;BME280;41776;48.260;8.928;2024-02-21T09:36:54;52282.00;;;-145.69;39.83
1726;BME280;41776;48.260;8.928;2024-02-21T09:39:21;52230.50;;;-145.69;39.78
1726;BME280;41776;48.260;8.928;2024-02-21T09:41:50;52252.28;;;-145.69;39.73
1726;BME280;41776;48.260;8.928;2024-02-21T09:44:21;52246.34;;;-145.69;39.29
1726;BME280;41776;48.260;8.928;2024-02-21T09:46:52;52234.47;;;-145.69;38.68
1726;BME280;41776;48.260;8.928;2024-02-21T09:49:29;52244.38;;;-145.69;37.98
1726;BME280;41776;48.260;8.928;2024-02-21T09:51:57;52270.13;;;-145.69;38.60
1726;BME280;41776;48.260;8.928;2024-02-21T09:54:28;52238.44;;;-145.69;37.31
1726;BME280;41776;48.260;8.928;2024-02-21T09:56:54;52230.50;;;-145.69;38.15
1726;BME280;41776;48.260;8.928;2024-02-21T09:59:22;52236.44;;;-145.69;38.34
1726;BME280;41776;48.260;8.928;2024-02-21T10:01:49;52224.56;;;-145.69;39.33
1726;BME280;41776;48.260;8.928;2024-02-21T10:04:16;52250.31;;;-145.69;39.04
1726;BME280;41776;48.260;8.928;2024-02-21T10:06:45;52238.44;;;-145.69;38.67
1726;BME280;41776;48.260;8.928;2024-02-21T10:09:20;52188.91;;;-145.69;38.19
1726;BME280;41776;48.260;8.928;2024-02-21T10:11:47;52236.44;;;-145.69;37.55
1726;BME280;41776;48.260;8.928;2024-02-21T10:14:13;52242.38;;;-145.69;37.83
1726;BME280;41776;48.260;8.928;2024-02-21T10:16:41;52216.66;;;-145.69;37.68
1726;BME280;41776;48.260;8.928;2024-02-21T10:19:16;52218.63;;;-145.69;37.37
1726;BME280;41776;48.260;8.928;2024-02-21T10:21:42;52226.53;;;-145.69;37.80
1726;BME280;41776;48.260;8.928;2024-02-21T10:24:12;52236.44;;;-145.69;37.91
1726;BME280;41776;48.260;8.928;2024-02-21T10:26:38;52190.91;;;-145.69;37.31
1726;BME280;41776;48.260;8.928;2024-02-21T10:29:05;52186.94;;;-145.69;36.89
1726;BME280;41776;48.260;8.928;2024-02-21T10:31:31;52175.06;;;-145.69;36.68
1726;BME280;41776;48.260;8.928;2024-02-21T10:33:59;52194.88;;;-145.69;36.09
1726;BME280;41776;48.260;8.928;2024-02-21T10:36:28;52206.75;;;-145.69;35.89
1726;BME280;41776;48.260;8.928;2024-02-21T10:38:55;52198.81;;;-145.69;37.50
1726;BME280;41776;48.260;8.928;2024-02-21T10:41:24;52165.16;;;-145.69;36.34
1726;BME280;41776;48.260;8.928;2024-02-21T10:43:53;52182.97;;;-145.69;36.16
1726;BME280;41776;48.260;8.928;2024-02-21T10:46:21;52157.25;;;-145.69;35.35
1726;BME280;41776;48.260;8.928;2024-02-21T10:48:56;52147.34;;;-145.69;35.25
1726;BME280;41776;48.260;8.928;2024-02-21T10:51:31;52169.13;;;-145.69;35.65
1726;BME280;41776;48.260;8.928;2024-02-21T10:54:20;52139.41;;;-145.69;35.23
1726;BME280;41776;48.260;8.928;2024-02-21T10:56:51;52149.31;;;-145.69;34.45
1726;BME280;41776;48.260;8.928;2024-02-21T10:59:18;52159.22;;;-145.69;33.21
1726;BME280;41776;48.260;8.928;2024-02-21T11:01:44;52163.19;;;-145.69;33.51
1726;BME280;41776;48.260;8.928;2024-02-21T11:04:11;52159.22;;;-145.69;32.60
1726;BME280;41776;48.260;8.928;2024-02-21T11:06:40;52161.19;;;-145.69;32.06
1726;BME280;41776;48.260;8.928;2024-02-21T11:09:08;52143.38;;;-145.69;33.13
1726;BME280;41776;48.260;8.928;2024-02-21T11:11:37;52171.09;;;-145.69;32.89
1726;BME280;41776;48.260;8.928;2024-02-21T11:14:06;52161.19;;;-145.69;32.38
1726;BME280;41776;48.260;8.928;2024-02-21T11:16:37;52167.13;;;-145.69;32.69
1726;BME280;41776;48.260;8.928;2024-02-21T11:19:08;52143.38;;;-145.69;31.99
1726;BME280;41776;48.260;8.928;2024-02-21T11:21:37;52137.44;;;-145.69;33.18
1726;BME280;41776;48.260;8.928;2024-02-21T11:24:04;52139.41;;;-145.69;31.85
1726;BME280;41776;48.260;8.928;2024-02-21T11:26:31;52127.53;;;-145.69;31.20
1726;BME280;41776;48.260;8.928;2024-02-21T11:28:59;52149.31;;;-145.69;29.54
1726;BME280;41776;48.260;8.928;2024-02-21T11:31:38;52111.69;;;-145.69;30.25
1726;BME280;41776;48.260;8.928;2024-02-21T11:34:05;52117.63;;;-145.69;29.69
1726;BME280;41776;48.260;8.928;2024-02-21T11:36:34;52115.66;;;-145.69;29.82
1726;BME280;41776;48.260;8.928;2024-02-21T11:39:03;52159.22;;;-145.69;30.28
1726;BME280;41776;48.260;8.928;2024-02-21T11:41:30;52129.50;;;-145.69;30.66
1726;BME280;41776;48.260;8.928;2024-02-21T11:43:57;52111.69;;;-145.69;31.81
1726;BME280;41776;48.260;8.928;2024-02-21T11:46:23;52143.38;;;-145.69;30.09
1726;BME280;41776;48.260;8.928;2024-02-21T11:48:51;52115.66;;;-145.69;29.00
1726;BME280;41776;48.260;8.928;2024-02-21T11:51:21;52123.56;;;-145.69;28.79
1726;BME280;41776;48.260;8.928;2024-02-21T11:53:50;52141.41;;;-145.69;29.77
1726;BME280;41776;48.260;8.928;2024-02-21T11:56:17;52131.50;;;-145.69;29.85
1726;BME280;41776;48.260;8.928;2024-02-21T11:58:44;52147.34;;;-145.69;29.25
1726;BME280;41776;48.260;8.928;2024-02-21T12:01:11;52119.63;;;-145.69;29.01
1726;BME280;41776;48.260;8.928;2024-02-21T12:03:39;52107.72;;;-145.69;29.32
1726;BME280;41776;48.260;8.928;2024-02-21T12:06:07;52099.81;;;-145.69;29.64
1726;BME280;41776;48.260;8.928;2024-02-21T12:08:41;52107.72;;;-145.69;29.57
1726;BME280;41776;48.260;8.928;2024-02-21T12:11:16;52103.78;;;-145.69;29.11
1726;BME280;41776;48.260;8.928;2024-02-21T12:13:43;52091.88;;;-145.69;29.32
1726;BME280;41776;48.260;8.928;2024-02-21T12:16:09;52095.84;;;-145.69;30.03
1726;BME280;41776;48.260;8.928;2024-02-21T12:18:36;52097.84;;;-145.69;30.02
1726;BME280;41776;48.260;8.928;2024-02-21T12:21:04;52119.63;;;-145.69;28.24
1726;BME280;41776;48.260;8.928;2024-02-21T12:23:35;52107.72;;;-145.69;29.62
1726;BME280;41776;48.260;8.928;2024-02-21T12:26:01;52131.50;;;-145.69;29.77
1726;BME280;41776;48.260;8.928;2024-02-21T12:28:30;52119.63;;;-145.69;29.85
1726;BME280;41776;48.260;8.928;2024-02-21T12:30:56;52119.63;;;-145.69;28.83
1726;BME280;41776;48.260;8.928;2024-02-21T12:33:23;52109.72;;;-145.69;28.90
1726;BME280;41776;48.260;8.928;2024-02-21T12:35:49;52083.97;;;-145.69;28.89
1726;BME280;41776;48.260;8.928;2024-02-21T12:38:16;52103.78;;;-145.69;28.76
1726;BME280;41776;48.260;8.928;2024-02-21T12:40:44;52091.88;;;-145.69;29.04
1726;BME280;41776;48.260;8.928;2024-02-21T12:43:11;52095.84;;;-145.69;29.09
1726;BME280;41776;48.260;8.928;2024-02-21T12:45:37;52111.69;;;-145.69;28.19
1726;BME280;41776;48.260;8.928;2024-02-21T12:48:04;52072.09;;;-145.69;27.43
1726;BME280;41776;48.260;8.928;2024-02-21T12:50:31;52107.72;;;-145.69;28.99